<?xml version="1.0" encoding="UTF-8" standalone="no" ?>
<gpx xmlns="http://www.topografix.com/GPX/1/1" xmlns:xsi="http://www.w3.org/2001/XMLSchema-instance" xsi:schemaLocation="http://www.topografix.com/GPX/1/1 http://www.topografix.com/GPX/1/1/gpx.xsd" version="1.1" creator="VisuGPX - https://www.visugpx.com">
  <metadata>
    <name>cool a fontainebleau</name>
    <desc><![CDATA[ rando facile et tres agréable au depart du bois rond a Arbonne ]]></desc>
  </metadata>
  <trk>
    <name><![CDATA[10211477-cool a fontainebleau]]></name>
    <trkseg>
      <trkpt lat="48.38765" lon="2.56159">
        <ele>78</ele>
        <time>2020-12-12T18:09:56Z</time>
      </trkpt>
      <trkpt lat="48.3869" lon="2.56341">
        <ele>81</ele>
        <time>2020-12-12T18:13:06Z</time>
      </trkpt>
      <trkpt lat="48.38587" lon="2.5643">
        <ele>84</ele>
        <time>2020-12-12T18:15:44Z</time>
      </trkpt>
      <trkpt lat="48.385" lon="2.56466">
        <ele>92</ele>
        <time>2020-12-12T18:17:45Z</time>
      </trkpt>
      <trkpt lat="48.38439" lon="2.56589">
        <ele>98</ele>
        <time>2020-12-12T18:20:01Z</time>
      </trkpt>
      <trkpt lat="48.38383" lon="2.56685">
        <ele>104</ele>
        <time>2020-12-12T18:21:54Z</time>
      </trkpt>
      <trkpt lat="48.38325" lon="2.56773">
        <ele>105</ele>
        <time>2020-12-12T18:23:44Z</time>
      </trkpt>
      <trkpt lat="48.38265" lon="2.56876">
        <ele>112</ele>
        <time>2020-12-12T18:25:45Z</time>
      </trkpt>
      <trkpt lat="48.38268" lon="2.57005">
        <ele>114</ele>
        <time>2020-12-12T18:27:40Z</time>
      </trkpt>
      <trkpt lat="48.38231" lon="2.57147">
        <ele>117</ele>
        <time>2020-12-12T18:29:55Z</time>
      </trkpt>
      <trkpt lat="48.38228" lon="2.57449">
        <ele>122</ele>
        <time>2020-12-12T18:34:23Z</time>
      </trkpt>
      <trkpt lat="48.38195" lon="2.5755">
        <ele>123</ele>
        <time>2020-12-12T18:36:02Z</time>
      </trkpt>
      <trkpt lat="48.38128" lon="2.58043">
        <ele>124</ele>
        <time>2020-12-12T18:43:28Z</time>
      </trkpt>
      <trkpt lat="48.37693" lon="2.57967">
        <ele>126</ele>
        <time>2020-12-12T18:53:13Z</time>
      </trkpt>
      <trkpt lat="48.37751" lon="2.57403">
        <ele>121</ele>
        <time>2020-12-12T19:01:39Z</time>
      </trkpt>
      <trkpt lat="48.37703" lon="2.57033">
        <ele>122</ele>
        <time>2020-12-12T19:07:13Z</time>
      </trkpt>
      <trkpt lat="48.37751" lon="2.56857">
        <ele>125</ele>
        <time>2020-12-12T19:10:01Z</time>
      </trkpt>
      <trkpt lat="48.3772" lon="2.56741">
        <ele>125</ele>
        <time>2020-12-12T19:11:52Z</time>
      </trkpt>
      <trkpt lat="48.37674" lon="2.56684">
        <ele>121</ele>
        <time>2020-12-12T19:13:12Z</time>
      </trkpt>
      <trkpt lat="48.3734" lon="2.56338">
        <ele>116</ele>
        <time>2020-12-12T19:22:13Z</time>
      </trkpt>
      <trkpt lat="48.37237" lon="2.56407">
        <ele>121</ele>
        <time>2020-12-12T19:24:43Z</time>
      </trkpt>
      <trkpt lat="48.37058" lon="2.56168">
        <ele>121</ele>
        <time>2020-12-12T19:30:03Z</time>
      </trkpt>
      <trkpt lat="48.36971" lon="2.56101">
        <ele>123</ele>
        <time>2020-12-12T19:32:13Z</time>
      </trkpt>
      <trkpt lat="48.36882" lon="2.56062">
        <ele>126</ele>
        <time>2020-12-12T19:34:17Z</time>
      </trkpt>
      <trkpt lat="48.36852" lon="2.55964">
        <ele>125</ele>
        <time>2020-12-12T19:35:52Z</time>
      </trkpt>
      <trkpt lat="48.36864" lon="2.55837">
        <ele>123</ele>
        <time>2020-12-12T19:37:46Z</time>
      </trkpt>
      <trkpt lat="48.36961" lon="2.55625">
        <ele>123</ele>
        <time>2020-12-12T19:41:34Z</time>
      </trkpt>
      <trkpt lat="48.37008" lon="2.55584">
        <ele>124</ele>
        <time>2020-12-12T19:42:47Z</time>
      </trkpt>
      <trkpt lat="48.37074" lon="2.55409">
        <ele>121</ele>
        <time>2020-12-12T19:45:45Z</time>
      </trkpt>
      <trkpt lat="48.36959" lon="2.55224">
        <ele>123</ele>
        <time>2020-12-12T19:49:30Z</time>
      </trkpt>
      <trkpt lat="48.37275" lon="2.54723">
        <ele>109</ele>
        <time>2020-12-12T19:59:42Z</time>
      </trkpt>
      <trkpt lat="48.36983" lon="2.54277">
        <ele>121</ele>
        <time>2020-12-12T20:08:57Z</time>
      </trkpt>
      <trkpt lat="48.36874" lon="2.54226">
        <ele>120</ele>
        <time>2020-12-12T20:11:30Z</time>
      </trkpt>
      <trkpt lat="48.36832" lon="2.54089">
        <ele>122</ele>
        <time>2020-12-12T20:13:43Z</time>
      </trkpt>
      <trkpt lat="48.36804" lon="2.53986">
        <ele>122</ele>
        <time>2020-12-12T20:15:22Z</time>
      </trkpt>
      <trkpt lat="48.36838" lon="2.53804">
        <ele>119</ele>
        <time>2020-12-12T20:18:10Z</time>
      </trkpt>
      <trkpt lat="48.36846" lon="2.53713">
        <ele>114</ele>
        <time>2020-12-12T20:19:31Z</time>
      </trkpt>
      <trkpt lat="48.36874" lon="2.53652">
        <ele>108</ele>
        <time>2020-12-12T20:20:37Z</time>
      </trkpt>
      <trkpt lat="48.36872" lon="2.53584">
        <ele>101</ele>
        <time>2020-12-12T20:21:37Z</time>
      </trkpt>
      <trkpt lat="48.36898" lon="2.53441">
        <ele>81</ele>
        <time>2020-12-12T20:23:48Z</time>
      </trkpt>
      <trkpt lat="48.3683" lon="2.53157">
        <ele>76</ele>
        <time>2020-12-12T20:28:16Z</time>
      </trkpt>
      <trkpt lat="48.36975" lon="2.53299">
        <ele>74</ele>
        <time>2020-12-12T20:32:07Z</time>
      </trkpt>
      <trkpt lat="48.37039" lon="2.53338">
        <ele>73</ele>
        <time>2020-12-12T20:33:39Z</time>
      </trkpt>
      <trkpt lat="48.37129" lon="2.53341">
        <ele>76</ele>
        <time>2020-12-12T20:35:39Z</time>
      </trkpt>
      <trkpt lat="48.37115" lon="2.53261">
        <ele>76</ele>
        <time>2020-12-12T20:36:53Z</time>
      </trkpt>
      <trkpt lat="48.3707" lon="2.53215">
        <ele>77</ele>
        <time>2020-12-12T20:38:05Z</time>
      </trkpt>
      <trkpt lat="48.37028" lon="2.53171">
        <ele>77</ele>
        <time>2020-12-12T20:39:13Z</time>
      </trkpt>
      <trkpt lat="48.36963" lon="2.53095">
        <ele>78</ele>
        <time>2020-12-12T20:41:03Z</time>
      </trkpt>
      <trkpt lat="48.36945" lon="2.52962">
        <ele>79</ele>
        <time>2020-12-12T20:43:04Z</time>
      </trkpt>
      <trkpt lat="48.36896" lon="2.52872">
        <ele>77</ele>
        <time>2020-12-12T20:44:47Z</time>
      </trkpt>
      <trkpt lat="48.36877" lon="2.52758">
        <ele>78</ele>
        <time>2020-12-12T20:46:31Z</time>
      </trkpt>
      <trkpt lat="48.36857" lon="2.52637">
        <ele>79</ele>
        <time>2020-12-12T20:48:22Z</time>
      </trkpt>
      <trkpt lat="48.36807" lon="2.52563">
        <ele>78</ele>
        <time>2020-12-12T20:49:55Z</time>
      </trkpt>
      <trkpt lat="48.36757" lon="2.52519">
        <ele>78</ele>
        <time>2020-12-12T20:51:12Z</time>
      </trkpt>
      <trkpt lat="48.36727" lon="2.52476">
        <ele>81</ele>
        <time>2020-12-12T20:52:08Z</time>
      </trkpt>
      <trkpt lat="48.36698" lon="2.52472">
        <ele>84</ele>
        <time>2020-12-12T20:52:47Z</time>
      </trkpt>
      <trkpt lat="48.36668" lon="2.52402">
        <ele>92</ele>
        <time>2020-12-12T20:54:00Z</time>
      </trkpt>
      <trkpt lat="48.36635" lon="2.52355">
        <ele>92</ele>
        <time>2020-12-12T20:55:01Z</time>
      </trkpt>
      <trkpt lat="48.36667" lon="2.52332">
        <ele>91</ele>
        <time>2020-12-12T20:55:48Z</time>
      </trkpt>
      <trkpt lat="48.36665" lon="2.52293">
        <ele>87</ele>
        <time>2020-12-12T20:56:23Z</time>
      </trkpt>
      <trkpt lat="48.36742" lon="2.52156">
        <ele>77</ele>
        <time>2020-12-12T20:59:02Z</time>
      </trkpt>
      <trkpt lat="48.36806" lon="2.52156">
        <ele>76</ele>
        <time>2020-12-12T21:00:27Z</time>
      </trkpt>
      <trkpt lat="48.36878" lon="2.52174">
        <ele>75</ele>
        <time>2020-12-12T21:02:05Z</time>
      </trkpt>
      <trkpt lat="48.36926" lon="2.52268">
        <ele>75</ele>
        <time>2020-12-12T21:03:50Z</time>
      </trkpt>
      <trkpt lat="48.36946" lon="2.52321">
        <ele>76</ele>
        <time>2020-12-12T21:04:44Z</time>
      </trkpt>
      <trkpt lat="48.37175" lon="2.5217">
        <ele>77</ele>
        <time>2020-12-12T21:10:18Z</time>
      </trkpt>
      <trkpt lat="48.37154" lon="2.52035">
        <ele>76</ele>
        <time>2020-12-12T21:12:21Z</time>
      </trkpt>
      <trkpt lat="48.37301" lon="2.51938">
        <ele>77</ele>
        <time>2020-12-12T21:15:55Z</time>
      </trkpt>
      <trkpt lat="48.37347" lon="2.52003">
        <ele>75</ele>
        <time>2020-12-12T21:17:19Z</time>
      </trkpt>
      <trkpt lat="48.37514" lon="2.52077">
        <ele>74</ele>
        <time>2020-12-12T21:21:11Z</time>
      </trkpt>
      <trkpt lat="48.37509" lon="2.52126">
        <ele>73</ele>
        <time>2020-12-12T21:21:55Z</time>
      </trkpt>
      <trkpt lat="48.37513" lon="2.52191">
        <ele>73</ele>
        <time>2020-12-12T21:22:53Z</time>
      </trkpt>
      <trkpt lat="48.37472" lon="2.5223">
        <ele>73</ele>
        <time>2020-12-12T21:23:58Z</time>
      </trkpt>
      <trkpt lat="48.37454" lon="2.52267">
        <ele>73</ele>
        <time>2020-12-12T21:24:38Z</time>
      </trkpt>
      <trkpt lat="48.37466" lon="2.52393">
        <ele>72</ele>
        <time>2020-12-12T21:26:31Z</time>
      </trkpt>
      <trkpt lat="48.37495" lon="2.52528">
        <ele>71</ele>
        <time>2020-12-12T21:28:37Z</time>
      </trkpt>
      <trkpt lat="48.37533" lon="2.52601">
        <ele>71</ele>
        <time>2020-12-12T21:29:59Z</time>
      </trkpt>
      <trkpt lat="48.37567" lon="2.52554">
        <ele>71</ele>
        <time>2020-12-12T21:31:01Z</time>
      </trkpt>
      <trkpt lat="48.37581" lon="2.52523">
        <ele>71</ele>
        <time>2020-12-12T21:31:34Z</time>
      </trkpt>
      <trkpt lat="48.37671" lon="2.52546">
        <ele>73</ele>
        <time>2020-12-12T21:33:36Z</time>
      </trkpt>
      <trkpt lat="48.37741" lon="2.52626">
        <ele>73</ele>
        <time>2020-12-12T21:35:33Z</time>
      </trkpt>
      <trkpt lat="48.37839" lon="2.52643">
        <ele>77</ele>
        <time>2020-12-12T21:37:45Z</time>
      </trkpt>
      <trkpt lat="48.37848" lon="2.52763">
        <ele>73</ele>
        <time>2020-12-12T21:39:32Z</time>
      </trkpt>
      <trkpt lat="48.37872" lon="2.52853">
        <ele>71</ele>
        <time>2020-12-12T21:40:58Z</time>
      </trkpt>
      <trkpt lat="48.3785" lon="2.52981">
        <ele>72</ele>
        <time>2020-12-12T21:42:55Z</time>
      </trkpt>
      <trkpt lat="48.37847" lon="2.53071">
        <ele>74</ele>
        <time>2020-12-12T21:44:15Z</time>
      </trkpt>
      <trkpt lat="48.37928" lon="2.53194">
        <ele>73</ele>
        <time>2020-12-12T21:46:48Z</time>
      </trkpt>
      <trkpt lat="48.37981" lon="2.53066">
        <ele>69</ele>
        <time>2020-12-12T21:49:02Z</time>
      </trkpt>
      <trkpt lat="48.3803" lon="2.52977">
        <ele>73</ele>
        <time>2020-12-12T21:50:45Z</time>
      </trkpt>
      <trkpt lat="48.38088" lon="2.5297">
        <ele>74</ele>
        <time>2020-12-12T21:52:02Z</time>
      </trkpt>
      <trkpt lat="48.3812" lon="2.5306">
        <ele>72</ele>
        <time>2020-12-12T21:53:33Z</time>
      </trkpt>
      <trkpt lat="48.38237" lon="2.53049">
        <ele>72</ele>
        <time>2020-12-12T21:56:09Z</time>
      </trkpt>
      <trkpt lat="48.38322" lon="2.52856">
        <ele>74</ele>
        <time>2020-12-12T21:59:34Z</time>
      </trkpt>
      <trkpt lat="48.38336" lon="2.52757">
        <ele>73</ele>
        <time>2020-12-12T22:01:04Z</time>
      </trkpt>
      <trkpt lat="48.38429" lon="2.53046">
        <ele>75</ele>
        <time>2020-12-12T22:05:49Z</time>
      </trkpt>
      <trkpt lat="48.38469" lon="2.53168">
        <ele>78</ele>
        <time>2020-12-12T22:07:49Z</time>
      </trkpt>
      <trkpt lat="48.38506" lon="2.5325">
        <ele>78</ele>
        <time>2020-12-12T22:09:17Z</time>
      </trkpt>
      <trkpt lat="48.38562" lon="2.53284">
        <ele>80</ele>
        <time>2020-12-12T22:10:38Z</time>
      </trkpt>
      <trkpt lat="48.38608" lon="2.53288">
        <ele>80</ele>
        <time>2020-12-12T22:11:39Z</time>
      </trkpt>
      <trkpt lat="48.3869" lon="2.53188">
        <ele>78</ele>
        <time>2020-12-12T22:14:00Z</time>
      </trkpt>
      <trkpt lat="48.38771" lon="2.53111">
        <ele>77</ele>
        <time>2020-12-12T22:16:08Z</time>
      </trkpt>
      <trkpt lat="48.38811" lon="2.53221">
        <ele>78</ele>
        <time>2020-12-12T22:17:59Z</time>
      </trkpt>
      <trkpt lat="48.38791" lon="2.5327">
        <ele>77</ele>
        <time>2020-12-12T22:18:50Z</time>
      </trkpt>
      <trkpt lat="48.38769" lon="2.53309">
        <ele>78</ele>
        <time>2020-12-12T22:19:35Z</time>
      </trkpt>
      <trkpt lat="48.38685" lon="2.53392">
        <ele>81</ele>
        <time>2020-12-12T22:21:49Z</time>
      </trkpt>
      <trkpt lat="48.38683" lon="2.535">
        <ele>87</ele>
        <time>2020-12-12T22:23:25Z</time>
      </trkpt>
      <trkpt lat="48.38681" lon="2.53569">
        <ele>91</ele>
        <time>2020-12-12T22:24:26Z</time>
      </trkpt>
      <trkpt lat="48.38708" lon="2.53647">
        <ele>100</ele>
        <time>2020-12-12T22:25:44Z</time>
      </trkpt>
      <trkpt lat="48.38707" lon="2.53722">
        <ele>104</ele>
        <time>2020-12-12T22:26:51Z</time>
      </trkpt>
      <trkpt lat="48.38764" lon="2.53802">
        <ele>108</ele>
        <time>2020-12-12T22:28:35Z</time>
      </trkpt>
      <trkpt lat="48.38721" lon="2.5384">
        <ele>109</ele>
        <time>2020-12-12T22:29:41Z</time>
      </trkpt>
      <trkpt lat="48.38693" lon="2.53786">
        <ele>108</ele>
        <time>2020-12-12T22:30:42Z</time>
      </trkpt>
      <trkpt lat="48.38667" lon="2.53787">
        <ele>109</ele>
        <time>2020-12-12T22:31:17Z</time>
      </trkpt>
      <trkpt lat="48.38625" lon="2.53901">
        <ele>115</ele>
        <time>2020-12-12T22:33:12Z</time>
      </trkpt>
      <trkpt lat="48.38588" lon="2.54035">
        <ele>118</ele>
        <time>2020-12-12T22:35:21Z</time>
      </trkpt>
      <trkpt lat="48.38524" lon="2.54183">
        <ele>118</ele>
        <time>2020-12-12T22:37:57Z</time>
      </trkpt>
      <trkpt lat="48.38523" lon="2.54297">
        <ele>119</ele>
        <time>2020-12-12T22:39:38Z</time>
      </trkpt>
      <trkpt lat="48.3852" lon="2.54411">
        <ele>119</ele>
        <time>2020-12-12T22:41:19Z</time>
      </trkpt>
      <trkpt lat="48.38484" lon="2.54565">
        <ele>119</ele>
        <time>2020-12-12T22:43:44Z</time>
      </trkpt>
      <trkpt lat="48.38586" lon="2.54829">
        <ele>118</ele>
        <time>2020-12-12T22:48:15Z</time>
      </trkpt>
      <trkpt lat="48.38564" lon="2.5502">
        <ele>118</ele>
        <time>2020-12-12T22:51:07Z</time>
      </trkpt>
      <trkpt lat="48.38519" lon="2.55142">
        <ele>119</ele>
        <time>2020-12-12T22:53:10Z</time>
      </trkpt>
      <trkpt lat="48.38506" lon="2.55344">
        <ele>117</ele>
        <time>2020-12-12T22:56:10Z</time>
      </trkpt>
      <trkpt lat="48.38467" lon="2.55576">
        <ele>111</ele>
        <time>2020-12-12T22:59:42Z</time>
      </trkpt>
      <trkpt lat="48.38439" lon="2.55715">
        <ele>108</ele>
        <time>2020-12-12T23:01:51Z</time>
      </trkpt>
      <trkpt lat="48.3841" lon="2.55769">
        <ele>108</ele>
        <time>2020-12-12T23:02:53Z</time>
      </trkpt>
      <trkpt lat="48.38405" lon="2.55926">
        <ele>107</ele>
        <time>2020-12-12T23:05:12Z</time>
      </trkpt>
      <trkpt lat="48.38517" lon="2.55936">
        <ele>107</ele>
        <time>2020-12-12T23:07:42Z</time>
      </trkpt>
      <trkpt lat="48.3861" lon="2.55859">
        <ele>101</ele>
        <time>2020-12-12T23:10:03Z</time>
      </trkpt>
      <trkpt lat="48.38644" lon="2.55777">
        <ele>96</ele>
        <time>2020-12-12T23:11:29Z</time>
      </trkpt>
      <trkpt lat="48.38698" lon="2.55887">
        <ele>87</ele>
        <time>2020-12-12T23:13:30Z</time>
      </trkpt>
      <trkpt lat="48.38764" lon="2.56025">
        <ele>80</ele>
        <time>2020-12-12T23:16:01Z</time>
      </trkpt>
      <trkpt lat="48.38774" lon="2.56112">
        <ele>79</ele>
        <time>2020-12-12T23:17:19Z</time>
      </trkpt>
      <trkpt lat="48.38742" lon="2.56105">
        <ele>80</ele>
        <time>2020-12-12T23:18:02Z</time>
      </trkpt>
      <trkpt lat="48.38739" lon="2.56105">
        <ele>80</ele>
        <time>2020-12-12T23:18:06Z</time>
      </trkpt>
      <trkpt lat="48.38739" lon="2.56105">
        <ele>80</ele>
        <time>2020-12-12T23:18:06Z</time>
      </trkpt>
      <trkpt lat="48.38714" lon="2.56103">
        <ele>81</ele>
        <time>2020-12-12T23:18:40Z</time>
      </trkpt>
    </trkseg>
  </trk>
</gpx>